Terminal Aerodrome Forecast
Issued by NWS Charleston, WV

Current Version | Previous Version | Graphics & Text | Print | Product List | Glossary On
Versions: 1 2 3 4 5 6 7 8 9 10 11 12 13 14 15 16 17 18 19 20 21 22 23 24 25 26 27 28
240
FTUS41 KRLX 261928 AAA
TAFPKB
TAF AMD
KPKB 261928Z 2619/2718 19006KT P6SM SHRA VCTS OVC050CB
      TEMPO 2621/2701 4SM SHRA OVC015
     FM270300 18005KT 6SM SHRA BR BKN050
     FM270700 22005KT P6SM OVC035
     FM270900 24004KT P6SM OVC008
     FM271700 23005KT P6SM BKN200=

USA.gov is the U.S. government's official web portal to all federal, state and local government web resources and services.